KJGG

Williamsburg-Jamestown Airport

Williamsburg, Virginia, USA
METAR KJGG 210415Z AUTO 00000KT 10SM CLR 06/M01 A3012 RMK AO1
Observed Flight Rules
Jan-21 @ 04:15 UTC (31 minutes ago) Visual Flight Rules
Wind Visibility Clouds
Calm 10 miles
  • Clear skies
Temperatures Readings
Current 6°C / 43°F
Dewpoint -1°C / 30°F
Humidity 61%
Altimeter 30.12" Hg
Pressure 1020 hPa
Elevation 15
METAR KJGG 210415Z AUTO 00000KT 10SM CLR 06/M01 A3012 RMK AO1
Observed Flight Rules
Jan-21 @ 04:15 UTC
(31 minutes ago)
VFR
Wind Visibility
Calm 10 miles
Clouds
  • Clear skies
Temperature Dewpoint
6°C / 43°F -1°C / 30°F
Humidity Altimeter Pressure
61% 30.12" Hg 1020 hPa